Time;durP1;ratioP1;P1;durP2;ratioP2;P2;SDS_P1;SDS_P2;PMS_P1;PMS_P2;Temp;Humidity;BMP_temperature;BMP_pressure;BME280_temperature;BME280_humidity;BME280_pressure;Samples;Min_cycle;Max_cycle;Signal;HPM_P1;HPM_P2
2022/10/29 00:01:54;;;;;;;0.55;0.20;;;;;;;;;;4932961;28;20400;-85
2022/10/29 00:04:22;;;;;;;0.40;0.40;;;;;;;;;;4933033;29;20047;-85
2022/10/29 00:06:48;;;;;;;0.10;0.10;;;;;;;;;;4952494;29;20028;-85
2022/10/29 00:09:13;;;;;;;0.57;0.45;;;;;;;;;;4952410;28;20602;-85
2022/10/29 00:11:39;;;;;;;0.20;0.20;;;;;;;;;;4946866;28;20027;-85
2022/10/29 00:14:04;;;;;;;0.30;0.30;;;;;;;;;;4955247;28;20035;-84
2022/10/29 00:16:36;;;;;;;0.95;0.70;;;;;;;;;;4926524;29;20023;-85
2022/10/29 00:19:03;;;;;;;0.95;0.65;;;;;;;;;;4949409;28;20482;-85
2022/10/29 00:21:28;;;;;;;0.20;0.20;;;;;;;;;;4952982;29;20026;-84
2022/10/29 00:23:56;;;;;;;0.35;0.30;;;;;;;;;;4951461;28;20031;-85
2022/10/29 00:26:22;;;;;;;0.38;0.30;;;;;;;;;;4930611;29;20046;-85
2022/10/29 00:28:51;;;;;;;0.47;0.30;;;;;;;;;;4950164;28;20540;-85
2022/10/29 00:31:18;;;;;;;1.13;0.68;;;;;;;;;;4935853;29;20796;-85
2022/10/29 00:33:44;;;;;;;0.20;0.20;;;;;;;;;;4928342;29;20026;-85
2022/10/29 00:36:15;;;;;;;0.75;0.45;;;;;;;;;;4950650;28;20039;-85
2022/10/29 00:38:43;;;;;;;1.25;0.45;;;;;;;;;;4955068;28;20058;-85
2022/10/29 00:41:12;;;;;;;0.45;0.43;;;;;;;;;;4953345;29;20475;-85
2022/10/29 00:43:40;;;;;;;0.30;0.30;;;;;;;;;;4953936;28;20027;-85
2022/10/29 00:46:11;;;;;;;0.68;0.40;;;;;;;;;;4948171;29;20031;-85
2022/10/29 00:48:43;;;;;;;0.40;0.25;;;;;;;;;;4948122;28;20035;-85
2022/10/29 00:51:11;;;;;;;1.05;0.60;;;;;;;;;;4949477;28;20019;-84
2022/10/29 00:53:42;;;;;;;2.90;1.17;;;;;;;;;;4940543;28;20027;-84
2022/10/29 00:56:07;;;;;;;1.08;0.32;;;;;;;;;;4936406;29;20031;-84
2022/10/29 00:58:33;;;;;;;1.67;0.52;;;;;;;;;;4954448;29;20031;-85
2022/10/29 01:01:02;;;;;;;1.08;0.73;;;;;;;;;;4937203;29;20074;-85
2022/10/29 01:03:28;;;;;;;0.38;0.30;;;;;;;;;;4954260;29;20535;-85
2022/10/29 01:05:54;;;;;;;1.15;0.60;;;;;;;;;;4954127;29;20035;-84
2022/10/29 01:08:20;;;;;;;0.20;0.20;;;;;;;;;;4934079;28;20030;-84
2022/10/29 01:11:02;;;;;;;0.55;0.55;;;;;;;;;;4952331;28;20118;-86
2022/10/29 01:14:03;;;;;;;0.73;0.35;;;;;;;;;;4932735;28;20117;-85
2022/10/29 01:16:41;;;;;;;0.32;0.30;;;;;;;;;;4951488;29;20023;-86
2022/10/29 01:19:35;;;;;;;0.10;0.10;;;;;;;;;;4952019;28;20039;-86
2022/10/29 01:22:04;;;;;;;0.10;0.10;;;;;;;;;;4952242;29;20040;-87
2022/10/29 01:24:38;;;;;;;0.25;0.20;;;;;;;;;;4947244;29;20028;-86
2022/10/29 01:27:47;;;;;;;0.17;0.17;;;;;;;;;;4950658;29;20502;-86
2022/10/29 01:30:33;;;;;;;0.45;0.30;;;;;;;;;;4905071;29;20062;-86
2022/10/29 01:33:17;;;;;;;0.47;0.35;;;;;;;;;;4934869;29;20484;-84
2022/10/29 01:35:47;;;;;;;0.28;0.28;;;;;;;;;;4950057;28;20019;-84
2022/10/29 01:38:27;;;;;;;0.25;0.22;;;;;;;;;;4948409;28;20173;-85
2022/10/29 01:41:18;;;;;;;0.47;0.20;;;;;;;;;;4933051;29;20035;-83
2022/10/29 01:43:50;;;;;;;0.10;0.10;;;;;;;;;;4949813;29;20055;-84
2022/10/29 01:46:24;;;;;;;1.85;0.82;;;;;;;;;;4947878;28;20027;-83
2022/10/29 01:49:02;;;;;;;0.20;0.20;;;;;;;;;;4949198;28;20533;-84
2022/10/29 01:51:32;;;;;;;0.52;0.38;;;;;;;;;;4950463;29;20030;-83
2022/10/29 01:54:00;;;;;;;1.00;0.90;;;;;;;;;;4937824;29;20035;-84
2022/10/29 01:56:26;;;;;;;0.93;0.60;;;;;;;;;;4942223;28;20424;-84
2022/10/29 01:58:55;;;;;;;3.72;0.40;;;;;;;;;;4948631;29;20023;-84
2022/10/29 02:01:42;;;;;;;0.20;0.20;;;;;;;;;;4926828;29;20026;-84
2022/10/29 02:04:16;;;;;;;0.95;0.22;;;;;;;;;;4951283;29;20122;-84
2022/10/29 02:06:54;;;;;;;0.20;0.20;;;;;;;;;;4948664;28;20027;-84
2022/10/29 02:09:33;;;;;;;0.20;0.20;;;;;;;;;;4949043;28;20081;-84
2022/10/29 02:12:22;;;;;;;0.30;0.30;;;;;;;;;;4950628;29;20034;-84
2022/10/29 02:14:53;;;;;;;0.60;0.60;;;;;;;;;;4951555;28;20051;-83
2022/10/29 02:17:19;;;;;;;0.65;0.50;;;;;;;;;;4946718;28;20034;-84
2022/10/29 02:19:44;;;;;;;0.32;0.32;;;;;;;;;;4943843;28;20492;-84
2022/10/29 02:22:09;;;;;;;0.32;0.30;;;;;;;;;;4933608;28;20031;-85
2022/10/29 02:24:35;;;;;;;1.75;0.65;;;;;;;;;;4956210;29;20085;-85
2022/10/29 02:27:00;;;;;;;0.63;0.40;;;;;;;;;;4952623;29;20041;-85
2022/10/29 02:29:26;;;;;;;0.55;0.32;;;;;;;;;;4953633;28;20054;-85
2022/10/29 02:31:51;;;;;;;0.10;0.10;;;;;;;;;;4931278;29;20471;-85
2022/10/29 02:34:16;;;;;;;0.40;0.20;;;;;;;;;;4956071;29;20034;-85
2022/10/29 02:36:46;;;;;;;0.30;0.30;;;;;;;;;;4955956;29;20051;-85
2022/10/29 02:39:11;;;;;;;0.45;0.30;;;;;;;;;;4945350;28;20028;-86
2022/10/29 02:41:37;;;;;;;0.60;0.50;;;;;;;;;;4931821;28;20039;-85
2022/10/29 02:44:02;;;;;;;1.75;0.73;;;;;;;;;;4957551;28;20506;-85
2022/10/29 02:46:29;;;;;;;0.85;0.70;;;;;;;;;;4950425;28;20031;-85
2022/10/29 02:48:54;;;;;;;0.45;0.45;;;;;;;;;;4956685;29;20388;-86
2022/10/29 02:51:20;;;;;;;1.85;0.70;;;;;;;;;;4956516;29;20098;-85
2022/10/29 02:53:45;;;;;;;0.80;0.80;;;;;;;;;;4936348;29;20499;-87
2022/10/29 02:56:10;;;;;;;0.32;0.32;;;;;;;;;;4956557;29;20032;-87
2022/10/29 02:58:36;;;;;;;0.85;0.70;;;;;;;;;;4936458;29;20530;-88
2022/10/29 03:01:02;;;;;;;8.63;1.13;;;;;;;;;;4948853;29;20031;-87
2022/10/29 03:03:28;;;;;;;0.57;0.57;;;;;;;;;;4929241;28;20039;-86
2022/10/29 03:05:53;;;;;;;0.95;0.80;;;;;;;;;;4956476;29;20027;-86
2022/10/29 03:08:19;;;;;;;1.33;0.70;;;;;;;;;;4937522;29;20031;-85
2022/10/29 03:10:44;;;;;;;0.52;0.40;;;;;;;;;;4934257;29;20031;-85
2022/10/29 03:13:10;;;;;;;0.40;0.40;;;;;;;;;;4955827;28;20038;-86
2022/10/29 03:15:36;;;;;;;0.52;0.52;;;;;;;;;;4948960;29;20114;-85
2022/10/29 03:18:03;;;;;;;0.30;0.30;;;;;;;;;;4955947;28;20031;-86
2022/10/29 03:20:29;;;;;;;0.82;0.68;;;;;;;;;;4932313;29;20035;-86
2022/10/29 03:22:54;;;;;;;0.47;0.30;;;;;;;;;;4951680;28;20372;-86
2022/10/29 03:25:19;;;;;;;1.85;0.68;;;;;;;;;;4947133;28;20055;-86
2022/10/29 03:27:45;;;;;;;0.60;0.60;;;;;;;;;;4936720;29;20075;-86
2022/10/29 03:30:13;;;;;;;0.20;0.20;;;;;;;;;;4956036;28;20031;-86
2022/10/29 03:32:40;;;;;;;0.52;0.52;;;;;;;;;;4947424;28;20043;-86
2022/10/29 03:35:06;;;;;;;0.25;0.25;;;;;;;;;;4954575;28;20542;-86
2022/10/29 03:37:31;;;;;;;0.10;0.10;;;;;;;;;;4930965;29;20412;-86
2022/10/29 03:39:57;;;;;;;0.25;0.20;;;;;;;;;;4955696;29;20019;-85
2022/10/29 03:42:22;;;;;;;0.38;0.30;;;;;;;;;;4945544;29;20039;-84
2022/10/29 03:44:48;;;;;;;2.72;0.55;;;;;;;;;;4948161;29;20032;-84
2022/10/29 03:47:18;;;;;;;0.50;0.32;;;;;;;;;;4947179;29;20035;-84
2022/10/29 03:49:44;;;;;;;0.15;0.15;;;;;;;;;;4931026;29;20118;-85
2022/10/29 03:52:09;;;;;;;0.10;0.10;;;;;;;;;;4955427;28;20070;-85
2022/10/29 03:54:34;;;;;;;0.30;0.30;;;;;;;;;;4932094;29;20465;-87
2022/10/29 03:57:00;;;;;;;0.85;0.70;;;;;;;;;;4932305;29;20090;-86
2022/10/29 03:59:25;;;;;;;0.28;0.28;;;;;;;;;;4931215;29;20107;-85
2022/10/29 04:01:50;;;;;;;0.63;0.52;;;;;;;;;;4936159;28;20030;-84
2022/10/29 04:04:16;;;;;;;1.25;0.75;;;;;;;;;;4953059;28;20039;-84
2022/10/29 04:06:41;;;;;;;1.48;0.93;;;;;;;;;;4954128;28;20023;-86
2022/10/29 04:09:07;;;;;;;0.55;0.55;;;;;;;;;;4928637;29;20034;-86
2022/10/29 04:11:32;;;;;;;2.35;1.58;;;;;;;;;;4954783;29;20078;-86
2022/10/29 04:13:57;;;;;;;4.70;1.80;;;;;;;;;;4933098;29;20082;-86
2022/10/29 04:16:23;;;;;;;1.65;1.15;;;;;;;;;;4953724;29;20502;-85
2022/10/29 04:18:49;;;;;;;0.75;0.75;;;;;;;;;;4953241;29;20027;-85
2022/10/29 04:21:15;;;;;;;1.67;1.08;;;;;;;;;;4951714;28;20066;-85
2022/10/29 04:23:41;;;;;;;0.98;0.73;;;;;;;;;;4932916;29;20464;-83
2022/10/29 04:26:06;;;;;;;1.50;0.68;;;;;;;;;;4952166;28;20042;-85
2022/10/29 04:28:32;;;;;;;1.10;0.60;;;;;;;;;;4938583;29;20051;-83
2022/10/29 04:31:01;;;;;;;0.52;0.30;;;;;;;;;;4955139;29;20086;-84
2022/10/29 04:33:27;;;;;;;;;;;;;;;;;;4954604;29;20031;-86
2022/10/29 04:35:53;;;;;;;0.68;0.60;;;;;;;;;;4937974;29;20034;-86
2022/10/29 04:38:20;;;;;;;1.92;0.88;;;;;;;;;;4935009;29;20035;-86
2022/10/29 04:40:45;;;;;;;5.93;3.78;;;;;;;;;;4954641;29;20035;-84
2022/10/29 04:43:10;;;;;;;1.38;1.25;;;;;;;;;;4937388;29;20049;-86
2022/10/29 04:45:36;;;;;;;1.13;0.88;;;;;;;;;;4952529;28;20387;-86
2022/10/29 04:48:03;;;;;;;1.35;1.20;;;;;;;;;;4954857;29;20038;-86
2022/10/29 04:50:29;;;;;;;2.45;1.05;;;;;;;;;;4929708;29;20074;-87
2022/10/29 04:52:59;;;;;;;0.60;0.60;;;;;;;;;;4937789;29;20027;-87
2022/10/29 04:55:25;;;;;;;0.77;0.77;;;;;;;;;;4954695;28;20106;-88
2022/10/29 04:57:50;;;;;;;0.70;0.70;;;;;;;;;;4954967;29;20059;-88
2022/10/29 05:00:16;;;;;;;0.73;0.73;;;;;;;;;;4934452;29;20046;-87
2022/10/29 05:02:41;;;;;;;1.63;0.93;;;;;;;;;;4953234;29;20074;-86
2022/10/29 05:05:07;;;;;;;0.82;0.82;;;;;;;;;;4954701;28;20395;-87
2022/10/29 05:07:32;;;;;;;1.33;1.02;;;;;;;;;;4952872;28;20175;-88
2022/10/29 05:09:58;;;;;;;0.60;0.60;;;;;;;;;;4952511;28;20046;-86
2022/10/29 05:12:23;;;;;;;0.35;0.35;;;;;;;;;;4954379;29;20094;-86
2022/10/29 05:14:48;;;;;;;1.13;0.60;;;;;;;;;;4954403;29;20123;-84
2022/10/29 05:17:14;;;;;;;0.47;0.40;;;;;;;;;;4954200;28;20491;-86
2022/10/29 05:19:39;;;;;;;0.52;0.52;;;;;;;;;;4953973;29;20035;-83
2022/10/29 05:22:05;;;;;;;0.98;0.57;;;;;;;;;;4953854;29;20042;-85
2022/10/29 05:24:30;;;;;;;1.60;1.17;;;;;;;;;;4954049;28;20072;-83
2022/10/29 05:26:55;;;;;;;1.48;1.35;;;;;;;;;;4928870;29;20094;-84
2022/10/29 05:29:21;;;;;;;0.90;0.85;;;;;;;;;;4929074;29;20102;-85
2022/10/29 05:31:46;;;;;;;3.13;1.75;;;;;;;;;;4928389;29;20035;-86
2022/10/29 05:34:11;;;;;;;4.00;2.15;;;;;;;;;;4951164;28;20703;-87
2022/10/29 05:36:37;;;;;;;5.15;3.03;;;;;;;;;;4951467;28;20031;-86
2022/10/29 05:39:02;;;;;;;8.32;4.15;;;;;;;;;;4950962;29;20059;-86
2022/10/29 05:41:28;;;;;;;2.70;1.90;;;;;;;;;;4935830;29;20055;-88
2022/10/29 05:43:53;;;;;;;1.35;1.05;;;;;;;;;;4951148;29;20028;-86
2022/10/29 05:46:18;;;;;;;1.80;1.70;;;;;;;;;;4921300;29;20086;-87
2022/10/29 05:48:44;;;;;;;2.00;1.13;;;;;;;;;;4949835;28;20039;-87
2022/10/29 05:51:09;;;;;;;1.50;1.20;;;;;;;;;;4949483;29;20027;-89
2022/10/29 05:53:35;;;;;;;3.25;1.50;;;;;;;;;;4952438;29;20028;-87
2022/10/29 05:56:00;;;;;;;1.80;1.48;;;;;;;;;;4953853;29;20031;-87
2022/10/29 05:58:36;;;;;;;3.45;1.77;;;;;;;;;;4934575;29;20122;-87
2022/10/29 06:01:06;;;;;;;2.88;1.33;;;;;;;;;;4949628;29;20034;-89
2022/10/29 06:03:31;;;;;;;3.42;1.92;;;;;;;;;;4952221;28;20435;-88
2022/10/29 06:05:56;;;;;;;4.00;1.38;;;;;;;;;;4950957;28;20131;-87
2022/10/29 06:08:22;;;;;;;2.28;1.58;;;;;;;;;;4951033;28;20019;-87
2022/10/29 06:10:47;;;;;;;2.97;1.63;;;;;;;;;;4954052;28;20035;-89
2022/10/29 06:13:16;;;;;;;2.28;1.63;;;;;;;;;;4949518;28;20520;-88
2022/10/29 06:15:42;;;;;;;2.70;1.67;;;;;;;;;;4951987;28;20074;-89
2022/10/29 06:18:08;;;;;;;6.30;1.88;;;;;;;;;;4945048;28;20027;-88
2022/10/29 06:20:34;;;;;;;13.45;7.22;;;;;;;;;;4951331;29;20031;-87
2022/10/29 06:22:59;;;;;;;4.32;3.05;;;;;;;;;;4946277;28;20039;-86
2022/10/29 06:25:25;;;;;;;3.28;2.08;;;;;;;;;;4931339;28;20468;-87
2022/10/29 06:28:18;;;;;;;4.30;3.03;;;;;;;;;;4952267;28;20407;-88
2022/10/29 06:30:48;;;;;;;3.58;2.00;;;;;;;;;;4943161;29;20468;-88
2022/10/29 06:33:14;;;;;;;2.08;1.50;;;;;;;;;;4952365;28;20038;-87
2022/10/29 06:35:40;;;;;;;1.85;1.60;;;;;;;;;;4951848;28;20028;-88
2022/10/29 06:38:08;;;;;;;3.95;1.63;;;;;;;;;;4929817;29;20043;-87
2022/10/29 06:40:36;;;;;;;2.22;1.58;;;;;;;;;;4949933;29;20031;-88
2022/10/29 06:43:07;;;;;;;3.30;2.20;;;;;;;;;;4952298;29;20432;-88
2022/10/29 06:45:33;;;;;;;2.47;1.35;;;;;;;;;;4930833;29;20023;-86
2022/10/29 06:47:59;;;;;;;3.17;2.00;;;;;;;;;;4936315;29;20078;-86
2022/10/29 06:50:25;;;;;;;3.40;1.77;;;;;;;;;;4943472;29;20039;-86
2022/10/29 06:53:05;;;;;;;3.45;2.15;;;;;;;;;;4953034;29;20031;-86
2022/10/29 06:55:31;;;;;;;;;;;;;;;;;;4933812;29;20067;-87
2022/10/29 07:02:37;;;;;;;8.98;2.03;;;;;;;;;;4859950;29;20419;-88
2022/10/29 07:05:05;;;;;;;3.45;2.05;;;;;;;;;;4877339;29;20039;-85
2022/10/29 07:07:55;;;;;;;4.60;2.17;;;;;;;;;;4932952;28;20067;-87
2022/10/29 07:10:20;;;;;;;4.13;2.28;;;;;;;;;;4930252;29;20035;-82
2022/10/29 07:12:46;;;;;;;2.40;1.83;;;;;;;;;;4951124;29;20499;-81
2022/10/29 07:15:12;;;;;;;3.45;2.20;;;;;;;;;;4949077;29;20027;-81
2022/10/29 07:17:38;;;;;;;4.25;2.78;;;;;;;;;;4954943;29;20114;-81
2022/10/29 07:20:06;;;;;;;5.35;3.15;;;;;;;;;;4932123;29;20055;-81
2022/10/29 07:22:31;;;;;;;4.32;3.10;;;;;;;;;;4951319;28;20036;-81
2022/10/29 07:24:57;;;;;;;5.22;3.38;;;;;;;;;;4929313;29;20039;-81
2022/10/29 07:27:22;;;;;;;4.40;2.60;;;;;;;;;;4933019;29;20050;-81
2022/10/29 07:29:48;;;;;;;9.57;3.13;;;;;;;;;;4954028;28;20051;-80
2022/10/29 07:32:14;;;;;;;24.15;14.00;;;;;;;;;;4949173;29;20027;-80
2022/10/29 07:34:40;;;;;;;5.53;2.80;;;;;;;;;;4931714;29;20039;-80
2022/10/29 07:37:05;;;;;;;3.95;2.33;;;;;;;;;;4954426;29;20033;-81
2022/10/29 07:39:31;;;;;;;4.97;2.67;;;;;;;;;;4954586;29;20110;-81
2022/10/29 07:41:56;;;;;;;6.90;3.05;;;;;;;;;;4950097;28;20038;-81
2022/10/29 07:44:21;;;;;;;9.27;2.75;;;;;;;;;;4951278;29;20110;-81
2022/10/29 07:46:47;;;;;;;7.50;2.65;;;;;;;;;;4950295;28;20074;-83
2022/10/29 07:49:12;;;;;;;12.20;4.13;;;;;;;;;;4948414;29;20567;-82
2022/10/29 07:51:37;;;;;;;4.97;2.92;;;;;;;;;;4949886;28;20024;-81
2022/10/29 07:54:03;;;;;;;3.67;3.08;;;;;;;;;;4932821;29;20081;-81
2022/10/29 07:56:28;;;;;;;7.20;3.58;;;;;;;;;;4952077;29;20114;-80
2022/10/29 07:58:54;;;;;;;7.45;3.60;;;;;;;;;;4952611;29;20122;-81
2022/10/29 08:01:19;;;;;;;7.00;3.92;;;;;;;;;;4949205;29;20031;-81
2022/10/29 08:03:45;;;;;;;5.28;4.07;;;;;;;;;;4931649;29;20027;-81
2022/10/29 08:06:10;;;;;;;4.30;3.35;;;;;;;;;;4944373;29;20035;-83
2022/10/29 08:08:35;;;;;;;6.53;3.60;;;;;;;;;;4947842;29;20126;-82
2022/10/29 08:11:03;;;;;;;6.22;3.42;;;;;;;;;;4950377;28;20468;-82
2022/10/29 08:13:29;;;;;;;5.75;3.65;;;;;;;;;;4954365;29;20066;-82
2022/10/29 08:15:54;;;;;;;9.90;3.80;;;;;;;;;;4950016;29;20495;-82
2022/10/29 08:18:19;;;;;;;8.48;3.80;;;;;;;;;;4954239;29;20101;-82
2022/10/29 08:20:45;;;;;;;5.28;2.70;;;;;;;;;;4952707;28;20155;-81
2022/10/29 08:23:12;;;;;;;5.35;3.80;;;;;;;;;;4952891;28;20039;-82
2022/10/29 08:25:40;;;;;;;6.60;4.05;;;;;;;;;;4951426;29;20019;-81
2022/10/29 08:28:07;;;;;;;5.90;3.38;;;;;;;;;;4949233;28;20083;-85
2022/10/29 08:30:33;;;;;;;4.18;2.85;;;;;;;;;;4930308;29;20028;-82
2022/10/29 08:32:59;;;;;;;3.10;2.55;;;;;;;;;;4953985;29;20387;-82
2022/10/29 08:35:25;;;;;;;7.13;3.90;;;;;;;;;;4954067;29;20035;-83
2022/10/29 08:37:50;;;;;;;5.03;2.67;;;;;;;;;;4954087;29;20023;-82
2022/10/29 08:40:37;;;;;;;5.97;3.47;;;;;;;;;;4953808;29;20035;-83
2022/10/29 08:43:30;;;;;;;5.95;3.15;;;;;;;;;;4949047;29;20036;-83
2022/10/29 08:45:56;;;;;;;5.95;3.80;;;;;;;;;;4945763;29;20023;-84
2022/10/29 08:48:36;;;;;;;8.45;3.25;;;;;;;;;;4952819;29;20031;-86
2022/10/29 08:51:21;;;;;;;5.68;4.18;;;;;;;;;;4949152;29;20030;-84
2022/10/29 08:53:49;;;;;;;7.15;4.40;;;;;;;;;;4948178;28;20951;-81
2022/10/29 08:56:24;;;;;;;9.00;5.05;;;;;;;;;;4952473;29;20055;-87
2022/10/29 08:59:12;;;;;;;6.53;3.80;;;;;;;;;;4944072;28;20023;-84
2022/10/29 09:01:38;;;;;;;6.80;3.60;;;;;;;;;;4950588;29;20038;-85
2022/10/29 09:04:35;;;;;;;7.82;3.35;;;;;;;;;;4953037;29;20035;-85
2022/10/29 09:07:18;;;;;;;7.82;3.55;;;;;;;;;;4928201;29;20050;-85
2022/10/29 09:10:06;;;;;;;5.05;2.95;;;;;;;;;;4947798;28;20472;-86
2022/10/29 09:12:39;;;;;;;7.60;4.63;;;;;;;;;;4930253;29;20030;-86
2022/10/29 09:15:42;;;;;;;6.85;3.72;;;;;;;;;;4940247;28;20034;-87
2022/10/29 09:18:25;;;;;;;5.78;3.25;;;;;;;;;;4949271;28;20487;-85
2022/10/29 09:20:59;;;;;;;13.40;4.32;;;;;;;;;;4946673;28;20031;-87
2022/10/29 09:24:03;;;;;;;5.80;3.65;;;;;;;;;;4953180;28;20034;-86
2022/10/29 09:26:48;;;;;;;7.10;3.75;;;;;;;;;;4952758;29;20019;-86
2022/10/29 09:29:37;;;;;;;6.03;3.13;;;;;;;;;;4949923;29;20052;-85
2022/10/29 09:32:08;;;;;;;6.10;4.32;;;;;;;;;;4950253;28;20078;-87
2022/10/29 09:34:43;;;;;;;5.93;3.47;;;;;;;;;;4952996;29;20033;-87
2022/10/29 09:37:24;;;;;;;8.23;3.42;;;;;;;;;;4953209;29;20043;-88
2022/10/29 09:39:49;;;;;;;6.13;3.53;;;;;;;;;;4944654;29;20031;-87
2022/10/29 09:42:25;;;;;;;4.85;3.20;;;;;;;;;;4952859;29;20544;-91
2022/10/29 09:44:57;;;;;;;2.88;2.10;;;;;;;;;;4949559;29;20027;-88
2022/10/29 09:47:32;;;;;;;4.35;2.53;;;;;;;;;;4951999;28;20031;-83
2022/10/29 09:50:03;;;;;;;5.53;2.92;;;;;;;;;;4949453;29;20483;-87
2022/10/29 09:52:33;;;;;;;5.15;2.60;;;;;;;;;;4952821;29;20808;-85
2022/10/29 09:55:01;;;;;;;3.72;2.53;;;;;;;;;;4950843;29;20027;-86
2022/10/29 09:57:29;;;;;;;2.53;1.80;;;;;;;;;;4933634;29;20032;-88
2022/10/29 09:59:57;;;;;;;4.95;2.83;;;;;;;;;;4948887;29;20482;-86
2022/10/29 10:02:32;;;;;;;6.60;2.97;;;;;;;;;;4933078;29;20023;-87
2022/10/29 10:05:04;;;;;;;4.90;3.08;;;;;;;;;;4949214;29;20035;-86
2022/10/29 10:07:29;;;;;;;3.38;1.80;;;;;;;;;;4952293;29;20118;-86
2022/10/29 10:09:58;;;;;;;4.43;2.83;;;;;;;;;;4952789;29;20163;-87
2022/10/29 10:12:45;;;;;;;3.10;1.40;;;;;;;;;;4953224;29;20023;-87
2022/10/29 10:15:51;;;;;;;3.92;1.88;;;;;;;;;;4949629;29;20027;-88
2022/10/29 10:18:23;;;;;;;4.55;1.63;;;;;;;;;;4857562;29;20034;-86
2022/10/29 10:21:10;;;;;;;3.03;1.10;;;;;;;;;;4942634;29;20554;-88
2022/10/29 10:23:47;;;;;;;2.22;1.45;;;;;;;;;;4953470;29;20447;-86
2022/10/29 10:26:32;;;;;;;2.05;0.98;;;;;;;;;;4943698;28;20027;-88
2022/10/29 10:29:14;;;;;;;3.17;1.23;;;;;;;;;;4948634;29;20097;-87
2022/10/29 10:31:42;;;;;;;2.63;1.50;;;;;;;;;;4952446;28;20082;-89
2022/10/29 10:34:20;;;;;;;3.63;1.20;;;;;;;;;;4944711;29;20038;-87
2022/10/29 10:37:01;;;;;;;2.30;1.30;;;;;;;;;;4952793;28;20038;-86
2022/10/29 10:39:30;;;;;;;3.55;1.55;;;;;;;;;;4932257;29;20536;-88
2022/10/29 10:41:59;;;;;;;1.65;1.35;;;;;;;;;;4943042;28;20031;-86
2022/10/29 10:44:26;;;;;;;1.43;1.20;;;;;;;;;;4931425;29;20126;-88
2022/10/29 10:46:54;;;;;;;1.45;1.20;;;;;;;;;;4927460;29;20704;-87
2022/10/29 10:49:30;;;;;;;1.63;1.08;;;;;;;;;;4935352;29;20058;-89
2022/10/29 10:51:58;;;;;;;1.35;1.13;;;;;;;;;;4938761;28;20015;-86
2022/10/29 10:54:37;;;;;;;0.77;0.70;;;;;;;;;;4950971;28;20480;-86
2022/10/29 10:57:11;;;;;;;1.05;0.73;;;;;;;;;;4947305;28;20154;-91
2022/10/29 11:00:02;;;;;;;2.10;0.75;;;;;;;;;;4952191;29;20030;-90
2022/10/29 11:02:33;;;;;;;2.33;1.02;;;;;;;;;;4953639;28;20059;-88
2022/10/29 11:05:20;;;;;;;2.53;1.15;;;;;;;;;;4938580;29;20035;-90
2022/10/29 11:08:11;;;;;;;1.48;0.80;;;;;;;;;;4952326;28;20376;-88
2022/10/29 11:10:44;;;;;;;3.50;0.88;;;;;;;;;;4953918;28;20019;-90
2022/10/29 11:13:14;;;;;;;0.95;0.80;;;;;;;;;;4933609;29;20827;-90
2022/10/29 11:15:44;;;;;;;1.48;1.00;;;;;;;;;;4952433;29;20381;-88
2022/10/29 11:18:17;;;;;;;1.20;0.80;;;;;;;;;;4952409;28;20038;-90
2022/10/29 11:20:55;;;;;;;1.98;0.90;;;;;;;;;;4953383;28;20031;-89
2022/10/29 11:23:30;;;;;;;1.60;0.73;;;;;;;;;;4943442;29;20118;-90
2022/10/29 11:26:04;;;;;;;2.05;1.02;;;;;;;;;;4930774;29;20077;-89
2022/10/29 11:28:59;;;;;;;1.30;1.00;;;;;;;;;;4956029;28;20090;-90
2022/10/29 11:31:33;;;;;;;1.85;0.90;;;;;;;;;;4950959;28;20039;-89
2022/10/29 11:34:21;;;;;;;1.67;1.20;;;;;;;;;;4946851;28;20114;-88
2022/10/29 11:36:55;;;;;;;1.25;0.80;;;;;;;;;;4953878;28;20480;-89
2022/10/29 11:39:35;;;;;;;0.85;0.57;;;;;;;;;;4956436;29;20086;-89
2022/10/29 11:42:01;;;;;;;1.40;0.90;;;;;;;;;;4936307;29;20031;-89
2022/10/29 11:44:36;;;;;;;1.00;0.75;;;;;;;;;;4933856;29;20381;-89
2022/10/29 11:47:09;;;;;;;0.80;0.80;;;;;;;;;;4948855;28;20107;-88
2022/10/29 11:49:59;;;;;;;1.40;0.98;;;;;;;;;;4952380;28;20028;-87
2022/10/29 11:52:27;;;;;;;;;;;;;;;;;;4948800;28;20031;-87
2022/10/29 11:55:20;;;;;;;2.65;1.15;;;;;;;;;;4950328;28;19922;-89
2022/10/29 11:58:02;;;;;;;1.30;0.77;;;;;;;;;;4952499;29;20027;-90
2022/10/29 12:00:36;;;;;;;0.98;0.70;;;;;;;;;;4945523;28;20472;-89
2022/10/29 12:03:04;;;;;;;1.65;0.85;;;;;;;;;;4948549;28;20497;-88
2022/10/29 12:05:41;;;;;;;3.40;1.02;;;;;;;;;;4954239;28;20142;-89
2022/10/29 12:08:26;;;;;;;1.08;0.73;;;;;;;;;;4934059;28;20059;-90
2022/10/29 12:11:04;;;;;;;0.98;0.63;;;;;;;;;;4912669;29;20039;-89
2022/10/29 12:13:35;;;;;;;3.55;1.13;;;;;;;;;;4951955;29;20027;-89
2022/10/29 12:16:15;;;;;;;1.48;0.90;;;;;;;;;;4960462;28;20030;-90
2022/10/29 12:18:49;;;;;;;1.17;0.73;;;;;;;;;;4944315;28;20391;-88
2022/10/29 12:21:37;;;;;;;0.70;0.60;;;;;;;;;;4935484;28;20027;-88
2022/10/29 12:24:20;;;;;;;1.48;0.50;;;;;;;;;;4932556;29;20035;-89
2022/10/29 12:27:06;;;;;;;2.40;0.95;;;;;;;;;;4942818;28;20034;-90
2022/10/29 12:29:45;;;;;;;0.70;0.60;;;;;;;;;;4956510;28;20047;-89
2022/10/29 12:32:26;;;;;;;2.33;0.90;;;;;;;;;;4955986;28;20030;-89
2022/10/29 12:35:01;;;;;;;0.50;0.50;;;;;;;;;;4950400;28;20020;-89
2022/10/29 12:37:40;;;;;;;2.30;0.80;;;;;;;;;;4950367;28;20027;-89
2022/10/29 12:40:20;;;;;;;9.27;1.27;;;;;;;;;;4947294;28;20058;-90
2022/10/29 12:42:48;;;;;;;2.63;0.85;;;;;;;;;;4941513;29;20031;-89
2022/10/29 12:45:31;;;;;;;2.83;1.02;;;;;;;;;;4934995;29;20023;-89
2022/10/29 12:48:12;;;;;;;1.05;0.52;;;;;;;;;;4930450;29;20082;-89
2022/10/29 12:50:43;;;;;;;1.42;0.47;;;;;;;;;;4934136;28;20023;-89
2022/10/29 12:53:30;;;;;;;0.40;0.40;;;;;;;;;;4953546;28;20031;-90
2022/10/29 12:55:57;;;;;;;1.02;0.70;;;;;;;;;;4952870;28;20077;-91
2022/10/29 12:58:42;;;;;;;1.10;0.75;;;;;;;;;;4944949;29;20362;-89
2022/10/29 13:01:28;;;;;;;1.17;0.35;;;;;;;;;;4934701;29;20478;-91
2022/10/29 13:03:53;;;;;;;0.50;0.40;;;;;;;;;;4921127;29;20554;-90
2022/10/29 13:06:42;;;;;;;0.70;0.57;;;;;;;;;;4936296;28;20119;-90
2022/10/29 13:09:16;;;;;;;1.73;0.35;;;;;;;;;;4952432;29;20472;-87
2022/10/29 13:11:46;;;;;;;0.77;0.55;;;;;;;;;;4932494;29;20500;-89
2022/10/29 13:14:17;;;;;;;0.35;0.28;;;;;;;;;;4928642;29;20037;-88
2022/10/29 13:16:48;;;;;;;1.77;0.95;;;;;;;;;;4954010;29;20046;-87
2022/10/29 13:19:20;;;;;;;0.20;0.20;;;;;;;;;;4937998;29;20050;-89
2022/10/29 13:21:56;;;;;;;0.50;0.30;;;;;;;;;;4932482;29;20035;-88
2022/10/29 13:24:22;;;;;;;0.40;0.38;;;;;;;;;;4952813;28;20507;-90
2022/10/29 13:27:15;;;;;;;0.35;0.28;;;;;;;;;;4952525;28;20087;-91
2022/10/29 13:29:44;;;;;;;0.30;0.30;;;;;;;;;;4949748;29;20471;-89
2022/10/29 13:32:37;;;;;;;0.25;0.22;;;;;;;;;;4936589;29;20083;-88
2022/10/29 13:35:23;;;;;;;0.85;0.40;;;;;;;;;;4951080;28;20027;-88
2022/10/29 13:38:08;;;;;;;0.40;0.35;;;;;;;;;;4951121;29;20058;-88
2022/10/29 13:40:33;;;;;;;0.40;0.40;;;;;;;;;;4952076;28;20027;-86
2022/10/29 13:43:02;;;;;;;0.10;0.10;;;;;;;;;;4943927;28;20102;-85
2022/10/29 13:45:28;;;;;;;2.92;0.65;;;;;;;;;;4929869;29;20857;-87
2022/10/29 13:48:04;;;;;;;0.85;0.60;;;;;;;;;;4944626;28;20107;-88
2022/10/29 13:50:32;;;;;;;0.55;0.40;;;;;;;;;;4951768;29;20027;-89
2022/10/29 13:52:59;;;;;;;0.47;0.47;;;;;;;;;;4948129;29;20366;-88
2022/10/29 13:55:29;;;;;;;0.65;0.43;;;;;;;;;;4950100;28;21503;-88
2022/10/29 13:58:13;;;;;;;1.17;0.52;;;;;;;;;;4946079;28;20031;-89
2022/10/29 14:00:39;;;;;;;0.52;0.35;;;;;;;;;;4932845;29;20035;-88
2022/10/29 14:03:40;;;;;;;0.77;0.55;;;;;;;;;;4927337;29;20370;-88
2022/10/29 14:06:14;;;;;;;0.80;0.60;;;;;;;;;;4920423;29;20110;-89
2022/10/29 14:08:45;;;;;;;0.73;0.52;;;;;;;;;;4922875;29;20059;-88
2022/10/29 14:11:19;;;;;;;0.20;0.20;;;;;;;;;;4945038;29;20023;-89
2022/10/29 14:13:55;;;;;;;0.68;0.40;;;;;;;;;;4949873;29;20109;-88
2022/10/29 14:16:32;;;;;;;0.45;0.20;;;;;;;;;;4924169;29;20027;-89
2022/10/29 14:19:10;;;;;;;1.80;0.57;;;;;;;;;;4938944;28;20027;-87
2022/10/29 14:21:37;;;;;;;3.97;0.65;;;;;;;;;;4948041;28;20419;-86
2022/10/29 14:24:06;;;;;;;0.55;0.40;;;;;;;;;;4955567;29;20065;-88
2022/10/29 14:26:34;;;;;;;0.68;0.40;;;;;;;;;;4934552;29;20452;-87
2022/10/29 14:29:13;;;;;;;1.17;0.25;;;;;;;;;;4913428;29;1123746;-89
2022/10/29 14:31:39;;;;;;;5.00;2.38;;;;;;;;;;4953143;29;20016;-88
2022/10/29 14:34:06;;;;;;;4.18;1.95;;;;;;;;;;4956207;29;20030;-88
2022/10/29 14:36:39;;;;;;;1.45;0.55;;;;;;;;;;4934299;29;20067;-88
2022/10/29 14:39:18;;;;;;;0.80;0.30;;;;;;;;;;4947049;28;20481;-87
2022/10/29 14:41:46;;;;;;;0.32;0.22;;;;;;;;;;4955145;29;20023;-87
2022/10/29 14:44:18;;;;;;;0.60;0.32;;;;;;;;;;4957068;29;20038;-88
2022/10/29 14:46:56;;;;;;;0.20;0.20;;;;;;;;;;4939826;29;20507;-88
2022/10/29 14:49:23;;;;;;;0.32;0.30;;;;;;;;;;4957205;29;20514;-87
2022/10/29 14:52:36;;;;;;;0.45;0.25;;;;;;;;;;4947699;28;20128;-88
2022/10/29 14:55:15;;;;;;;0.52;0.30;;;;;;;;;;4951365;29;20546;-86
2022/10/29 14:57:45;;;;;;;1.65;0.77;;;;;;;;;;4950427;29;20396;-85
2022/10/29 15:00:26;;;;;;;1.73;0.43;;;;;;;;;;4956598;29;20039;-85
2022/10/29 15:02:58;;;;;;;0.20;0.20;;;;;;;;;;4933705;29;20476;-86
2022/10/29 15:05:30;;;;;;;0.30;0.30;;;;;;;;;;4953954;29;20031;-85
2022/10/29 15:08:07;;;;;;;5.53;3.78;;;;;;;;;;4948126;29;20028;-85
2022/10/29 15:10:45;;;;;;;0.82;0.55;;;;;;;;;;4952838;28;20106;-85
2022/10/29 15:13:25;;;;;;;0.73;0.20;;;;;;;;;;4956637;28;20027;-84
2022/10/29 15:16:04;;;;;;;0.30;0.20;;;;;;;;;;4956167;29;20027;-85